createdAt,value
2022-11-17T00:03:28.223Z,3.83
2022-11-17T00:08:31.015Z,3.95
2022-11-17T00:13:52.598Z,4.18
2022-11-17T00:19:13.400Z,4.07
2022-11-17T00:24:18.700Z,4.25
2022-11-17T00:29:21.271Z,4.05
2022-11-17T00:34:24.254Z,4.50
2022-11-17T00:39:26.747Z,3.97
2022-11-17T00:44:29.880Z,4.40
2022-11-17T00:49:32.555Z,4.93
2022-11-17T00:54:35.111Z,4.57
2022-11-17T00:59:37.740Z,5.68
2022-11-17T01:04:40.214Z,4.90
2022-11-17T01:09:42.744Z,4.97
2022-11-17T01:14:45.214Z,5.68
2022-11-17T01:19:49.378Z,5.45
2022-11-17T01:24:51.905Z,5.75
2022-11-17T01:29:54.385Z,5.43
2022-11-17T01:34:56.824Z,5.38
2022-11-17T01:39:59.296Z,5.43
2022-11-17T01:45:26.971Z,5.30
2022-11-17T01:50:40.895Z,4.75
2022-11-17T01:55:51.156Z,6.15
2022-11-17T02:00:54.903Z,6.30
2022-11-17T02:06:05.051Z,5.70
2022-11-17T02:11:12.635Z,6.93
2022-11-17T02:16:17.504Z,7.65
2022-11-17T02:21:52.852Z,6.43
2022-11-17T02:27:24.296Z,4.70
2022-11-17T02:32:38.844Z,3.78
2022-11-17T02:37:55.475Z,3.38
2022-11-17T02:43:19.001Z,3.38
2022-11-17T02:48:44.318Z,3.28
2022-11-17T02:53:48.411Z,3.45
2022-11-17T02:58:55.918Z,3.45
2022-11-17T03:04:19.716Z,3.20
2022-11-17T03:09:30.701Z,3.40
2022-11-17T03:15:03.865Z,3.20
2022-11-17T03:20:50.480Z,3.40
2022-11-17T03:25:58.983Z,3.83
2022-11-17T03:31:04.929Z,4.40
2022-11-17T03:36:12.881Z,4.13
2022-11-17T03:41:18.605Z,4.60
2022-11-17T03:46:24.829Z,3.95
2022-11-17T03:51:33.496Z,5.22
2022-11-17T03:56:51.935Z,4.95
2022-11-17T04:01:54.698Z,5.40
2022-11-17T04:06:57.253Z,5.35
2022-11-17T04:12:18.489Z,4.95
2022-11-17T04:17:20.988Z,5.47
2022-11-17T04:22:23.531Z,5.00
2022-11-17T04:28:04.708Z,5.47
2022-11-17T04:33:07.145Z,5.68
2022-11-17T04:38:10.298Z,6.93
2022-11-17T04:43:12.677Z,6.07
2022-11-17T04:48:15.209Z,5.32
2022-11-17T04:53:17.690Z,6.18
2022-11-17T04:58:20.201Z,6.30
2022-11-17T05:03:23.225Z,6.35
2022-11-17T05:08:26.632Z,6.57
2022-11-17T05:13:29.264Z,6.65
2022-11-17T05:18:31.688Z,7.22
2022-11-17T05:23:52.868Z,7.30
2022-11-17T05:28:57.737Z,6.85
2022-11-17T05:34:01.543Z,7.07
2022-11-17T05:39:04.540Z,7.38
2022-11-17T05:44:07.054Z,7.05
2022-11-17T05:49:09.587Z,6.45
2022-11-17T05:54:12.153Z,6.78
2022-11-17T05:59:30.416Z,6.50
2022-11-17T06:04:33.155Z,7.10
2022-11-17T06:09:39.500Z,7.13
2022-11-17T06:14:42.104Z,6.40
2022-11-17T06:19:49.219Z,6.47
2022-11-17T06:30:00.461Z,6.35
2022-11-17T06:35:05.997Z,6.28
2022-11-17T06:40:10.332Z,5.90
2022-11-17T06:45:12.993Z,7.13
2022-11-17T06:50:15.599Z,7.32
2022-11-17T06:55:18.953Z,7.03
2022-11-17T07:00:21.848Z,7.10
2022-11-17T07:05:24.363Z,7.80
2022-11-17T07:10:27.779Z,6.07
2022-11-17T07:15:30.626Z,6.55
2022-11-17T07:20:33.553Z,5.63
2022-11-17T07:25:36.178Z,5.50
2022-11-17T07:30:38.715Z,5.70
2022-11-17T07:35:41.434Z,5.55
2022-11-17T07:40:43.988Z,6.05
2022-11-17T07:45:46.595Z,5.32
2022-11-17T07:50:49.214Z,5.10
2022-11-17T07:55:51.750Z,4.65
2022-11-17T08:00:54.305Z,4.15
2022-11-17T08:05:58.074Z,4.45
2022-11-17T08:11:05.474Z,4.22
2022-11-17T08:16:09.408Z,5.13
2022-11-17T08:21:14.207Z,4.47
2022-11-17T08:26:16.844Z,3.90
2022-11-17T08:31:19.397Z,3.60
2022-11-17T08:36:22.084Z,3.13
2022-11-17T08:41:26.163Z,2.60
2022-11-17T08:46:28.974Z,2.75
2022-11-17T08:51:31.632Z,3.25
2022-11-17T08:56:34.143Z,3.70
2022-11-17T09:01:36.747Z,3.35
2022-11-17T09:06:39.350Z,3.22
2022-11-17T09:11:41.939Z,2.38
2022-11-17T09:16:44.373Z,2.38
2022-11-17T09:21:46.933Z,2.33
2022-11-17T09:26:49.786Z,2.72
2022-11-17T09:31:52.455Z,2.47
2022-11-17T09:36:55.016Z,2.03
2022-11-17T09:41:59.045Z,2.97
2022-11-17T09:47:24.191Z,2.80
2022-11-17T09:52:33.324Z,2.70
2022-11-17T09:57:49.075Z,2.90
2022-11-17T10:02:54.117Z,3.10
2022-11-17T10:08:08.962Z,3.15
2022-11-17T10:13:17.823Z,2.80
2022-11-17T10:18:20.710Z,3.50
2022-11-17T10:23:23.332Z,3.50
2022-11-17T10:28:32.122Z,3.50
2022-11-17T10:33:36.629Z,3.22
2022-11-17T10:38:45.837Z,3.03
2022-11-17T10:44:02.719Z,3.85
2022-11-17T10:49:24.863Z,3.25
2022-11-17T10:54:27.380Z,3.60
2022-11-17T10:59:33.834Z,3.40
2022-11-17T11:04:41.740Z,3.97
2022-11-17T11:10:00.361Z,3.65
2022-11-17T11:15:09.493Z,2.45
2022-11-17T11:20:17.592Z,3.13
2022-11-17T11:25:26.204Z,2.75
2022-11-17T11:30:36.444Z,2.47
2022-11-17T11:35:38.898Z,2.80
2022-11-17T11:40:46.027Z,2.97
2022-11-17T11:46:18.944Z,2.45
2022-11-17T11:51:37.435Z,2.47
2022-11-17T11:56:42.829Z,2.63
2022-11-17T12:02:01.674Z,2.55
2022-11-17T12:07:11.582Z,2.40
2022-11-17T12:12:18.479Z,3.03
2022-11-17T12:17:34.292Z,3.35
2022-11-17T12:22:36.817Z,3.85
2022-11-17T12:27:39.786Z,4.32
2022-11-17T12:32:45.023Z,5.88
2022-11-17T12:37:47.497Z,4.97
2022-11-17T12:43:16.007Z,5.93
2022-11-17T12:48:33.352Z,6.93
2022-11-17T12:54:21.253Z,7.43
2022-11-17T12:59:37.001Z,7.82
2022-11-17T13:04:50.265Z,8.30
2022-11-17T13:09:57.609Z,9.13
2022-11-17T13:15:05.686Z,10.25
2022-11-17T13:20:30.944Z,10.02
2022-11-17T13:25:35.498Z,9.95
2022-11-17T13:30:38.604Z,10.52
2022-11-17T13:35:41.219Z,9.65
2022-11-17T13:40:44.280Z,10.73
2022-11-17T13:45:51.419Z,11.48
2022-11-17T13:51:18.724Z,11.00
2022-11-17T13:56:37.281Z,11.65
2022-11-17T14:01:39.793Z,13.10
2022-11-17T14:07:02.688Z,13.05
2022-11-17T14:12:11.759Z,13.13
2022-11-17T14:17:22.509Z,13.00
2022-11-17T14:22:31.229Z,12.50
2022-11-17T14:27:37.507Z,13.25
2022-11-17T14:32:40.602Z,12.25
2022-11-17T14:37:43.871Z,11.80
2022-11-17T14:42:46.405Z,11.40
2022-11-17T14:47:48.985Z,12.45
2022-11-17T14:52:51.709Z,13.00
2022-11-17T14:57:54.573Z,11.32
2022-11-17T15:02:57.380Z,13.27
2022-11-17T15:07:59.946Z,12.85
2022-11-17T15:13:02.599Z,13.52
2022-11-17T15:18:05.294Z,13.68
2022-11-17T15:23:08.593Z,13.98
2022-11-17T15:28:15.014Z,15.55
2022-11-17T15:33:24.778Z,15.52
2022-11-17T15:38:27.289Z,15.32
2022-11-17T15:43:31.937Z,15.40
2022-11-17T15:48:39.083Z,15.45
2022-11-17T15:54:03.083Z,15.80
2022-11-17T15:59:06.836Z,15.98
2022-11-17T16:04:11.621Z,15.35
2022-11-17T16:09:15.461Z,15.20
2022-11-17T16:14:18.324Z,15.43
2022-11-17T16:19:20.845Z,16.00
2022-11-17T16:24:23.363Z,14.75
2022-11-17T16:29:25.969Z,16.00
2022-11-17T16:34:28.851Z,15.00
2022-11-17T16:39:31.488Z,16.88
2022-11-17T16:44:34.055Z,15.40
2022-11-17T16:49:36.997Z,16.90
2022-11-17T16:54:39.476Z,16.45
2022-11-17T16:59:41.998Z,14.93
2022-11-17T17:04:44.581Z,15.75
2022-11-17T17:09:47.080Z,12.13
2022-11-17T17:14:49.632Z,14.77
2022-11-17T17:19:52.074Z,12.90
2022-11-17T17:24:54.578Z,13.00
2022-11-17T17:29:57.301Z,14.65
2022-11-17T17:34:59.858Z,13.98
2022-11-17T17:40:02.434Z,13.88
2022-11-17T17:45:06.200Z,14.77
2022-11-17T17:50:09.003Z,13.43
2022-11-17T17:55:12.066Z,15.52
2022-11-17T18:00:15.357Z,14.95
2022-11-17T18:05:17.938Z,13.93
2022-11-17T18:10:20.507Z,15.00
2022-11-17T18:15:22.995Z,14.25
2022-11-17T18:20:25.582Z,13.80
2022-11-17T18:25:28.254Z,15.00
2022-11-17T18:30:30.897Z,15.65
2022-11-17T18:35:35.535Z,14.38
2022-11-17T18:40:38.021Z,14.68
2022-11-17T18:45:40.625Z,14.25
2022-11-17T18:51:17.402Z,14.40
2022-11-17T18:56:09.920Z,14.00
2022-11-17T19:01:20.818Z,15.38
2022-11-17T19:06:25.496Z,14.07
2022-11-17T19:11:31.836Z,14.25
2022-11-17T19:16:44.540Z,15.27
2022-11-17T19:21:47.749Z,13.73
2022-11-17T19:26:50.244Z,14.70
2022-11-17T19:31:53.078Z,14.55
2022-11-17T19:36:55.640Z,16.15
2022-11-17T19:41:58.211Z,16.15
2022-11-17T19:47:00.895Z,12.35
2022-11-17T19:52:04.101Z,14.57
2022-11-17T19:57:06.651Z,14.15
2022-11-17T20:02:12.100Z,11.77
2022-11-17T20:07:14.760Z,14.20
2022-11-17T20:12:17.354Z,15.88
2022-11-17T20:17:19.877Z,15.38
2022-11-17T20:22:22.352Z,14.80
2022-11-17T20:27:25.941Z,13.82
2022-11-17T20:32:31.138Z,14.45
2022-11-17T20:37:33.709Z,13.38
2022-11-17T20:42:36.216Z,13.25
2022-11-17T20:47:38.856Z,12.55
2022-11-17T20:52:41.520Z,13.00
2022-11-17T20:57:44.059Z,13.48
2022-11-17T21:02:46.613Z,11.80
2022-11-17T21:07:49.164Z,10.90
2022-11-17T21:12:51.610Z,11.07
2022-11-17T21:18:12.576Z,11.15
2022-11-17T21:23:15.070Z,10.10
2022-11-17T21:28:17.713Z,10.18
2022-11-17T21:33:20.202Z,10.07
2022-11-17T21:38:22.884Z,8.85
2022-11-17T21:43:25.423Z,8.45
2022-11-17T21:48:27.919Z,8.38
2022-11-17T21:53:37.703Z,8.40
2022-11-17T21:58:40.715Z,8.63
2022-11-17T22:03:43.627Z,9.52
2022-11-17T22:08:47.653Z,9.05
2022-11-17T22:13:50.326Z,10.20
2022-11-17T22:18:52.783Z,11.63
2022-11-17T22:23:55.429Z,10.93
2022-11-17T22:28:58.743Z,10.77
2022-11-17T22:34:01.349Z,11.18
2022-11-17T22:39:04.297Z,11.40
2022-11-17T22:44:07.230Z,11.98
2022-11-17T22:49:10.601Z,12.13
2022-11-17T22:54:13.254Z,11.57
2022-11-17T22:59:16.857Z,11.82
2022-11-17T23:04:19.711Z,11.00
2022-11-17T23:09:22.297Z,11.30
2022-11-17T23:14:24.803Z,11.13
2022-11-17T23:19:27.348Z,11.63
2022-11-17T23:24:35.850Z,11.27
2022-11-17T23:29:38.758Z,12.77
2022-11-17T23:34:41.300Z,11.05
2022-11-17T23:39:43.844Z,10.23
2022-11-17T23:44:46.443Z,10.10
2022-11-17T23:49:48.990Z,9.38
2022-11-17T23:54:51.601Z,8.20
2022-11-17T23:59:54.170Z,7.88
